Time;durP1;ratioP1;P1;durP2;ratioP2;P2;SDS_P1;SDS_P2;PMS_P1;PMS_P2;Temp;Humidity;BMP_temperature;BMP_pressure;BME280_temperature;BME280_humidity;BME280_pressure;Samples;Min_cycle;Max_cycle;Signal;HPM_P1;HPM_P2
2022/01/08 00:00:12;;;;;;;11.00;2.45;;;;;;;3.95;71.71;100947.88;5084653;28;20032;-41
2022/01/08 00:02:38;;;;;;;14.45;2.05;;;;;;;3.96;70.66;100944.22;5085014;28;20033;-43
2022/01/08 00:05:04;;;;;;;10.90;1.88;;;;;;;3.94;70.21;100944.34;5051679;28;20060;-41
2022/01/08 00:07:29;;;;;;;12.25;1.90;;;;;;;3.94;70.74;100935.53;5051811;28;20507;-42
2022/01/08 00:09:54;;;;;;;14.50;2.40;;;;;;;3.90;70.14;100939.47;5052532;28;20550;-41
2022/01/08 00:12:20;;;;;;;8.65;2.00;;;;;;;3.95;69.31;100947.88;5051491;28;20469;-42
2022/01/08 00:14:46;;;;;;;11.70;2.20;;;;;;;3.93;70.34;100948.00;5033302;28;20033;-41
2022/01/08 00:17:11;;;;;;;13.10;1.67;;;;;;;3.91;70.63;100946.44;5032765;28;20029;-42
2022/01/08 00:19:37;;;;;;;11.55;2.10;;;;;;;3.89;71.16;100943.91;5031573;28;20025;-43
2022/01/08 00:22:03;;;;;;;9.05;1.90;;;;;;;3.86;70.81;100946.84;5043097;28;20033;-42
2022/01/08 00:24:28;;;;;;;11.23;2.35;;;;;;;3.88;71.06;100952.06;5034370;28;20033;-42
2022/01/08 00:26:53;;;;;;;9.95;1.83;;;;;;;3.85;70.97;100957.66;5032102;28;20023;-42
2022/01/08 00:29:19;;;;;;;10.32;1.50;;;;;;;3.88;70.69;100952.06;5030835;28;20083;-42
2022/01/08 00:31:44;;;;;;;13.18;1.90;;;;;;;3.90;71.26;100953.59;5032470;28;20033;-42
2022/01/08 00:34:09;;;;;;;14.65;2.08;;;;;;;3.90;70.07;100952.78;5047313;28;20083;-42
2022/01/08 00:36:35;;;;;;;13.70;1.73;;;;;;;3.97;70.16;100935.25;5050981;28;20053;-42
2022/01/08 00:39:00;;;;;;;10.93;1.55;;;;;;;3.95;70.18;100942.56;5052853;28;20029;-42
2022/01/08 00:41:26;;;;;;;6.20;1.60;;;;;;;4.02;70.35;100933.00;5051566;28;20032;-42
2022/01/08 00:43:51;;;;;;;7.47;1.70;;;;;;;4.00;70.99;100936.78;5040696;28;20528;-42
2022/01/08 00:46:17;;;;;;;10.95;1.30;;;;;;;3.96;71.76;100938.91;5035231;28;20032;-42
2022/01/08 00:48:44;;;;;;;11.80;2.05;;;;;;;3.93;72.30;100933.84;5032548;28;20501;-42
2022/01/08 00:51:10;;;;;;;11.55;1.50;;;;;;;3.90;71.85;100932.31;5032203;28;20038;-42
2022/01/08 00:53:36;;;;;;;15.65;1.92;;;;;;;3.89;71.44;100953.72;5041699;28;20037;-42
2022/01/08 00:56:01;;;;;;;13.77;2.33;;;;;;;3.84;72.17;100951.47;5052164;28;20025;-42
2022/01/08 00:58:27;;;;;;;11.57;1.67;;;;;;;3.82;72.28;100953.44;5052036;28;20049;-42
2022/01/08 01:00:52;;;;;;;12.50;2.00;;;;;;;3.81;72.67;100945.56;5051693;28;20421;-42
2022/01/08 01:03:18;;;;;;;6.88;1.25;;;;;;;3.79;72.66;100958.19;5044657;28;20029;-42
2022/01/08 01:05:43;;;;;;;16.83;1.67;;;;;;;3.78;72.83;100960.00;5031998;28;20026;-42
2022/01/08 01:08:08;;;;;;;11.20;1.60;;;;;;;3.77;72.63;100965.47;5033090;28;20029;-42
2022/01/08 01:10:34;;;;;;;9.88;1.67;;;;;;;3.75;73.99;100957.63;5033372;28;20052;-42
2022/01/08 01:12:59;;;;;;;19.92;1.75;;;;;;;3.80;73.20;100965.19;5039930;28;20027;-43
2022/01/08 01:15:24;;;;;;;15.70;2.92;;;;;;;3.79;73.70;100950.19;5055705;28;20032;-42
2022/01/08 01:17:50;;;;;;;15.60;2.00;;;;;;;3.78;73.90;100961.81;5043915;28;20021;-42
2022/01/08 01:20:17;;;;;;;9.60;1.60;;;;;;;3.78;73.50;100957.34;5035864;28;20029;-42
2022/01/08 01:22:58;;;;;;;17.75;2.28;;;;;;;3.76;74.38;100961.94;5037929;28;20497;-42
2022/01/08 01:25:30;;;;;;;15.68;2.70;;;;;;;3.74;74.40;100954.13;5056084;28;20033;-42
2022/01/08 01:28:06;;;;;;;14.27;2.00;;;;;;;3.72;75.16;100953.41;5056083;28;20120;-42
2022/01/08 01:41:32;;;;;;;9.82;2.08;;;;;;;4.06;73.79;100963.72;5055428;28;20055;-41
2022/01/08 01:49:20;;;;;;;;;;;;;;;4.17;72.32;100974.25;5056048;28;20404;-42
2022/01/08 01:51:45;;;;;;;10.32;1.77;;;;;;;4.28;72.12;100983.97;5055296;28;20007;-42
2022/01/08 01:54:11;;;;;;;15.20;2.17;;;;;;;4.30;73.06;100989.16;5054959;28;20396;-42
2022/01/08 01:56:37;;;;;;;13.18;2.00;;;;;;;4.30;73.20;100989.16;5054122;28;20025;-42
2022/01/08 01:59:03;;;;;;;11.65;1.70;;;;;;;4.35;73.17;100993.09;5055013;28;20025;-43
2022/01/08 02:01:28;;;;;;;14.77;2.35;;;;;;;4.38;73.39;100997.31;5055119;28;20075;-42
2022/01/08 02:03:53;;;;;;;14.07;1.85;;;;;;;4.38;73.53;100986.66;5050127;28;20029;-42
2022/01/08 02:06:19;;;;;;;15.80;1.80;;;;;;;4.35;72.54;100993.09;5054956;28;20021;-43
2022/01/08 02:08:44;;;;;;;13.55;1.95;;;;;;;4.32;73.05;100995.19;5055072;28;20036;-42
2022/01/08 02:11:10;;;;;;;10.27;1.90;;;;;;;4.26;72.64;100980.59;5054908;28;20388;-42
2022/01/08 02:13:35;;;;;;;9.48;1.63;;;;;;;4.22;72.27;100992.50;5043961;28;20413;-42
2022/01/08 02:16:01;;;;;;;6.75;1.60;;;;;;;4.23;72.51;100986.19;5054265;28;20697;-42
2022/01/08 02:18:27;;;;;;;8.30;1.60;;;;;;;4.19;71.74;100982.13;5053744;28;20044;-43
2022/01/08 02:20:55;;;;;;;7.25;1.48;;;;;;;4.13;72.97;100982.66;5053327;28;20021;-42
2022/01/08 02:23:20;;;;;;;15.02;1.95;;;;;;;4.12;72.41;100989.81;5044550;28;20029;-42
2022/01/08 02:25:46;;;;;;;6.85;1.65;;;;;;;4.12;72.45;100981.81;5044000;28;20025;-42
2022/01/08 02:28:11;;;;;;;11.30;1.40;;;;;;;4.16;72.91;100987.72;5034878;28;20548;-43
2022/01/08 02:30:37;;;;;;;13.13;1.42;;;;;;;4.20;73.30;100977.63;5046928;28;20382;-42
2022/01/08 02:33:02;;;;;;;8.60;2.13;;;;;;;4.22;72.63;100978.34;5043277;28;20452;-42
2022/01/08 02:35:27;;;;;;;6.28;1.40;;;;;;;4.21;72.67;100973.97;5034793;28;20087;-42
2022/01/08 02:37:53;;;;;;;13.73;2.20;;;;;;;4.16;73.12;100977.06;5034421;28;20046;-42
2022/01/08 02:40:20;;;;;;;15.65;1.80;;;;;;;4.12;73.37;100986.31;5034462;28;20437;-42
2022/01/08 02:42:54;;;;;;;11.15;1.67;;;;;;;4.10;73.65;100983.78;5043757;28;20025;-42
2022/01/08 02:45:21;;;;;;;8.38;1.23;;;;;;;4.07;73.25;100978.72;5064440;28;20033;-43
2022/01/08 02:47:47;;;;;;;10.65;1.48;;;;;;;4.03;73.63;100973.78;5054156;28;20104;-42
2022/01/08 02:50:13;;;;;;;16.75;1.60;;;;;;;3.99;74.01;100970.56;5054489;28;20457;-43
2022/01/08 02:52:46;;;;;;;9.65;1.80;;;;;;;3.95;74.09;100986.00;5053491;28;20024;-41
2022/01/08 02:55:20;;;;;;;8.38;1.38;;;;;;;3.94;74.22;100983.44;5054600;28;20457;-41
2022/01/08 02:57:46;;;;;;;8.77;1.48;;;;;;;3.91;74.06;100978.41;5054175;28;20036;-42
2022/01/08 03:00:14;;;;;;;10.85;1.83;;;;;;;3.87;74.27;100971.66;5053923;28;20040;-42
2022/01/08 03:02:41;;;;;;;9.80;2.05;;;;;;;3.89;75.10;100967.88;5053183;28;20477;-41
2022/01/08 03:05:07;;;;;;;14.03;2.00;;;;;;;3.94;75.45;100960.31;5053809;28;20048;-42
2022/01/08 03:07:33;;;;;;;12.02;2.17;;;;;;;3.99;75.36;100961.75;5053432;28;20341;-42
2022/01/08 03:09:58;;;;;;;10.98;2.25;;;;;;;3.98;75.15;100968.91;5052038;28;20044;-42
2022/01/08 03:12:25;;;;;;;10.48;1.52;;;;;;;3.93;74.01;100976.44;5041394;28;20043;-42
2022/01/08 03:14:51;;;;;;;6.20;1.67;;;;;;;3.87;73.89;100983.16;5053808;28;20029;-41
2022/01/08 03:17:16;;;;;;;9.80;1.42;;;;;;;3.82;74.14;100973.88;5053736;28;20391;-41
2022/01/08 03:19:41;;;;;;;3.20;1.10;;;;;;;3.73;75.39;100979.03;5053566;28;20067;-42
2022/01/08 03:22:06;;;;;;;10.80;1.65;;;;;;;3.66;76.26;100974.38;5065324;28;20459;-42
2022/01/08 03:24:32;;;;;;;5.57;1.45;;;;;;;3.63;76.49;100972.00;5053575;28;20373;-42
2022/01/08 03:26:58;;;;;;;4.07;1.23;;;;;;;3.58;77.59;100975.06;5053401;28;20033;-42
2022/01/08 03:29:24;;;;;;;8.60;1.52;;;;;;;3.57;77.46;100968.03;5053539;28;20025;-41
2022/01/08 03:31:49;;;;;;;8.40;1.60;;;;;;;3.57;78.18;100973.38;5051125;28;20033;-42
2022/01/08 03:34:16;;;;;;;12.63;2.22;;;;;;;3.57;78.11;100969.88;5033559;28;20036;-41
2022/01/08 03:36:41;;;;;;;18.05;2.22;;;;;;;3.54;78.83;100960.34;5033362;28;20054;-42
2022/01/08 03:39:06;;;;;;;10.60;2.22;;;;;;;3.55;78.37;100966.50;5033288;28;20232;-42
2022/01/08 03:41:32;;;;;;;10.15;2.17;;;;;;;3.55;78.36;100967.31;5032919;28;20033;-43
2022/01/08 03:43:57;;;;;;;10.52;1.77;;;;;;;3.53;78.89;100969.31;5069642;28;20087;-42
2022/01/08 03:46:27;;;;;;;10.50;1.90;;;;;;;3.52;78.20;100972.91;5053091;28;20107;-41
2022/01/08 03:51:26;;;;;;;21.27;2.97;;;;;;;3.52;78.31;100972.91;5052864;28;20099;-42
2022/01/08 03:53:52;;;;;;;19.42;2.50;;;;;;;3.51;78.66;100963.25;5052286;28;20083;-41
2022/01/08 03:56:17;;;;;;;5.85;1.73;;;;;;;3.50;77.87;100958.91;5051407;28;20059;-41
2022/01/08 03:58:42;;;;;;;15.15;2.28;;;;;;;3.48;77.37;100955.56;5052686;28;20037;-41
2022/01/08 04:01:08;;;;;;;14.63;2.28;;;;;;;3.49;77.35;100963.38;5051950;28;20017;-41
2022/01/08 04:03:33;;;;;;;9.35;2.30;;;;;;;3.50;76.60;100964.22;5035235;28;20060;-42
2022/01/08 04:05:58;;;;;;;13.93;1.85;;;;;;;3.49;76.24;100963.38;5031837;28;20034;-42
2022/01/08 04:08:25;;;;;;;10.40;1.80;;;;;;;3.50;76.85;100961.56;5032531;28;20084;-41
2022/01/08 04:10:50;;;;;;;8.20;1.83;;;;;;;3.51;76.21;100965.94;5032658;28;20017;-41
2022/01/08 04:13:21;;;;;;;10.90;1.45;;;;;;;3.50;76.38;100975.72;5045488;28;20120;-42
2022/01/08 04:15:53;;;;;;;12.75;2.03;;;;;;;3.51;76.50;100979.22;5052848;28;20124;-42
2022/01/08 04:18:19;;;;;;;12.52;1.65;;;;;;;3.51;76.74;100977.41;5053083;28;20033;-41
2022/01/08 04:21:26;;;;;;;15.23;2.17;;;;;;;3.50;76.29;100975.72;5052775;28;20496;-42
2022/01/08 04:23:34;;;;;;;13.48;1.67;;;;;;;3.51;75.93;100987.22;5036415;28;20052;-41
2022/01/08 04:26:00;;;;;;;10.55;1.88;;;;;;;3.45;76.41;100982.41;5052752;28;20021;-41
2022/01/08 04:28:25;;;;;;;9.55;2.10;;;;;;;3.45;76.45;100987.72;5084476;28;20508;-41
2022/01/08 04:30:52;;;;;;;17.65;2.17;;;;;;;3.43;76.15;100992.34;5052415;28;20056;-41
2022/01/08 04:33:17;;;;;;;18.88;2.35;;;;;;;3.43;76.32;101000.34;5037562;28;20496;-41
2022/01/08 04:35:43;;;;;;;11.50;1.60;;;;;;;3.40;76.09;100989.97;5031347;28;20034;-42
2022/01/08 04:38:11;;;;;;;13.05;1.60;;;;;;;3.40;76.43;100993.47;5033000;28;20060;-41
2022/01/08 04:40:36;;;;;;;9.68;1.63;;;;;;;3.40;76.96;100998.78;5033327;28;20064;-41
2022/01/08 04:43:02;;;;;;;14.93;1.88;;;;;;;3.43;77.24;101005.66;5043563;28;20470;-42
2022/01/08 04:45:29;;;;;;;13.10;2.67;;;;;;;3.44;76.98;101002.00;5051268;28;20108;-41
2022/01/08 04:47:59;;;;;;;12.70;2.22;;;;;;;3.46;76.92;101000.06;5051127;28;20151;-42
2022/01/08 04:50:26;;;;;;;12.27;1.73;;;;;;;3.45;76.44;101003.69;5052976;28;20120;-41
2022/01/08 04:52:51;;;;;;;11.02;1.65;;;;;;;3.41;76.75;101002.28;5083572;28;20025;-41
2022/01/08 04:55:17;;;;;;;14.18;2.70;;;;;;;3.41;75.91;100991.63;5051345;28;21084;-41
2022/01/08 04:57:42;;;;;;;14.60;2.05;;;;;;;3.41;76.18;100994.31;5052904;28;20031;-42
2022/01/08 05:00:08;;;;;;;18.15;2.38;;;;;;;3.40;76.20;100982.81;5085264;28;20053;-42
2022/01/08 05:02:34;;;;;;;14.32;2.20;;;;;;;3.36;76.31;100985.88;5043465;28;20033;-41
2022/01/08 05:04:59;;;;;;;17.80;1.92;;;;;;;3.35;76.93;100986.84;5032544;28;20036;-42
2022/01/08 05:07:24;;;;;;;10.30;2.10;;;;;;;3.33;77.40;100991.47;5031209;28;20029;-41
2022/01/08 05:09:50;;;;;;;13.43;1.98;;;;;;;3.32;77.51;100987.09;5032450;28;20485;-42
2022/01/08 05:12:15;;;;;;;20.17;2.85;;;;;;;3.37;77.22;100990.19;5036705;28;20032;-42
2022/01/08 05:14:43;;;;;;;12.55;2.15;;;;;;;3.37;77.79;100988.41;5052121;28;20108;-42
2022/01/08 05:17:08;;;;;;;17.08;2.50;;;;;;;3.37;77.78;100984.88;5052184;28;20061;-41
2022/01/08 05:22:06;;;;;;;15.52;1.95;;;;;;;3.40;77.26;101000.59;5030796;28;20116;-41
2022/01/08 05:24:33;;;;;;;9.82;2.38;;;;;;;3.44;77.26;101010.00;5032007;28;20104;-42
2022/01/08 05:26:58;;;;;;;10.00;1.90;;;;;;;3.48;76.92;101006.09;5031941;28;20393;-42
2022/01/08 05:29:24;;;;;;;14.80;1.88;;;;;;;3.54;76.53;101005.56;5034165;28;20033;-42
2022/01/08 05:31:49;;;;;;;13.88;1.83;;;;;;;3.58;76.73;101012.34;5050798;28;20488;-42
2022/01/08 05:34:15;;;;;;;13.98;1.83;;;;;;;3.61;75.98;101009.41;5048453;28;20112;-41
2022/01/08 05:36:40;;;;;;;14.15;2.40;;;;;;;3.62;76.95;101016.41;5051041;28;20325;-42
2022/01/08 05:39:07;;;;;;;11.68;2.17;;;;;;;3.62;76.89;101024.38;5051803;28;20037;-42
2022/01/08 05:41:32;;;;;;;9.95;1.90;;;;;;;3.62;76.28;101020.88;5052169;28;20575;-42
2022/01/08 05:43:57;;;;;;;7.95;1.52;;;;;;;3.64;76.85;101025.09;5050864;28;20033;-43
2022/01/08 05:46:23;;;;;;;10.93;2.03;;;;;;;3.67;76.74;101019.50;5030964;28;20037;-41
2022/01/08 05:48:48;;;;;;;6.65;1.33;;;;;;;3.68;76.49;101013.19;5031501;28;20036;-42
2022/01/08 05:51:13;;;;;;;8.70;1.60;;;;;;;3.73;75.79;101010.97;5031463;28;20029;-42
2022/01/08 05:53:39;;;;;;;10.77;2.55;;;;;;;3.77;75.69;101003.59;5065966;28;20385;-41
2022/01/08 05:56:04;;;;;;;8.13;1.50;;;;;;;3.80;75.96;101007.81;5071789;28;20039;-42
2022/01/08 05:58:30;;;;;;;10.60;1.48;;;;;;;3.83;75.56;101012.84;5052351;28;20025;-41
2022/01/08 06:00:55;;;;;;;20.40;2.20;;;;;;;3.85;75.08;101000.25;5042320;28;20033;-41
2022/01/08 06:03:20;;;;;;;10.85;1.95;;;;;;;3.84;75.79;100999.38;5039776;28;20394;-42
2022/01/08 06:05:46;;;;;;;15.13;1.83;;;;;;;3.82;75.10;100996.03;5039253;28;20029;-42
2022/01/08 06:08:11;;;;;;;3.40;1.40;;;;;;;3.82;75.70;100995.16;5053347;28;20037;-41
2022/01/08 06:10:36;;;;;;;12.90;1.50;;;;;;;3.83;75.46;100991.56;5055084;28;20050;-41
2022/01/08 06:13:02;;;;;;;9.68;2.40;;;;;;;3.77;75.33;100992.94;5054267;28;20491;-41
2022/01/08 06:15:27;;;;;;;12.98;1.90;;;;;;;3.77;75.78;100992.09;5055931;28;20333;-43
2022/01/08 06:17:52;;;;;;;13.77;1.95;;;;;;;3.75;75.85;100984.22;5064506;28;20056;-41
2022/01/08 06:20:18;;;;;;;9.07;1.90;;;;;;;3.70;75.85;100981.97;5052191;28;20040;-41
2022/01/08 06:22:43;;;;;;;11.85;1.60;;;;;;;3.66;76.89;100982.34;5061094;28;20024;-41
2022/01/08 06:25:08;;;;;;;11.05;1.83;;;;;;;3.66;76.28;100975.25;5045278;28;20131;-41
2022/01/08 06:27:34;;;;;;;14.82;2.13;;;;;;;3.65;76.40;100972.69;5048676;28;20063;-42
2022/01/08 06:29:59;;;;;;;11.27;2.00;;;;;;;3.63;76.82;100980.81;5049588;28;20029;-42
2022/01/08 06:32:24;;;;;;;13.38;1.52;;;;;;;3.62;76.88;100973.81;5059068;28;20352;-41
2022/01/08 06:34:50;;;;;;;17.85;1.98;;;;;;;3.62;77.01;100984.47;5071311;28;20032;-41
2022/01/08 06:37:15;;;;;;;13.68;2.03;;;;;;;3.64;77.15;100982.50;5055510;28;20068;-43
2022/01/08 06:39:41;;;;;;;13.27;1.95;;;;;;;3.66;77.34;100969.06;5062853;28;20017;-42
2022/01/08 06:42:06;;;;;;;14.88;2.08;;;;;;;3.66;78.15;100961.94;5051693;28;20106;-41
2022/01/08 06:44:31;;;;;;;11.80;1.83;;;;;;;3.70;77.94;100975.81;5062479;28;20103;-42
2022/01/08 06:46:57;;;;;;;15.32;2.00;;;;;;;3.67;78.52;100966.28;5071643;28;20119;-41
2022/01/08 06:49:22;;;;;;;12.52;2.50;;;;;;;3.67;78.85;100966.28;5068306;28;20480;-41
2022/01/08 06:51:48;;;;;;;11.27;2.28;;;;;;;3.70;77.99;100967.81;5062387;28;20029;-42
2022/01/08 06:54:13;;;;;;;8.25;2.25;;;;;;;3.77;78.00;100960.16;5051445;28;20059;-41
2022/01/08 06:56:39;;;;;;;11.65;2.53;;;;;;;3.80;78.20;100951.91;5033412;28;20041;-42
2022/01/08 06:59:04;;;;;;;10.93;1.65;;;;;;;3.82;78.44;100955.22;5051021;28;20029;-41
2022/01/08 07:01:29;;;;;;;16.95;2.10;;;;;;;3.88;77.57;100958.22;5050244;28;20017;-42
2022/01/08 07:03:55;;;;;;;9.88;1.92;;;;;;;3.90;78.29;100958.09;5032897;28;20029;-42
2022/01/08 07:06:21;;;;;;;9.00;1.70;;;;;;;3.91;77.63;100951.78;5051134;28;20148;-41
2022/01/08 07:08:46;;;;;;;8.75;2.00;;;;;;;3.91;78.24;100946.44;5050668;28;20020;-42
2022/01/08 07:11:11;;;;;;;5.90;1.50;;;;;;;3.91;78.13;100957.09;5051103;28;20402;-41
2022/01/08 07:13:37;;;;;;;10.73;2.00;;;;;;;3.90;78.32;100944.78;5051020;28;20675;-41
2022/01/08 07:16:02;;;;;;;10.15;1.73;;;;;;;3.90;78.06;100939.47;5050914;28;20021;-41
2022/01/08 07:18:28;;;;;;;14.35;2.08;;;;;;;3.89;77.91;100943.06;5033006;28;20029;-41
2022/01/08 07:20:54;;;;;;;11.18;2.15;;;;;;;3.85;78.23;100944.34;5050927;28;20025;-41
2022/01/08 07:23:20;;;;;;;9.27;1.85;;;;;;;3.77;78.16;100944.19;5051532;28;20090;-41
2022/01/08 07:25:45;;;;;;;15.40;2.35;;;;;;;3.76;78.63;100938.00;5063708;28;20032;-42
2022/01/08 07:28:11;;;;;;;13.52;2.05;;;;;;;3.70;79.06;100936.72;5070739;28;20043;-42
2022/01/08 07:30:36;;;;;;;8.82;2.10;;;;;;;3.68;79.00;100925.34;5058114;28;20028;-41
2022/01/08 07:33:01;;;;;;;10.38;2.30;;;;;;;3.64;79.57;100934.59;5050411;28;20037;-43
2022/01/08 07:35:27;;;;;;;9.98;1.90;;;;;;;3.59;79.83;100939.47;5050228;28;20032;-41
2022/01/08 07:37:52;;;;;;;15.55;2.85;;;;;;;3.59;79.44;100930.66;5050335;28;20068;-41
2022/01/08 07:40:18;;;;;;;13.30;2.22;;;;;;;3.55;80.24;100930.06;5049301;28;20021;-41
2022/01/08 07:42:44;;;;;;;13.73;2.00;;;;;;;3.52;80.05;100925.84;5050140;28;20028;-42
2022/01/08 07:45:10;;;;;;;10.50;2.72;;;;;;;3.54;80.55;100928.41;5050955;28;20477;-41
2022/01/08 07:47:36;;;;;;;9.70;1.55;;;;;;;3.58;80.30;100932.50;5049133;28;20045;-42
2022/01/08 07:50:01;;;;;;;10.48;2.25;;;;;;;3.60;80.34;100932.34;5048947;28;20029;-42
2022/01/08 07:52:27;;;;;;;12.02;2.25;;;;;;;3.63;81.00;100932.91;5050079;28;20021;-41
2022/01/08 07:54:53;;;;;;;9.77;1.42;;;;;;;3.62;80.40;100931.22;5082121;28;20125;-42
2022/01/08 07:57:18;;;;;;;16.08;2.75;;;;;;;3.57;81.25;100930.78;5048726;28;20349;-41
2022/01/08 07:59:43;;;;;;;10.55;1.88;;;;;;;3.54;80.80;100923.06;5050824;28;20082;-42
2022/01/08 08:02:10;;;;;;;12.35;2.38;;;;;;;3.54;81.46;100922.25;5052195;28;20039;-42
2022/01/08 08:04:35;;;;;;;6.20;1.85;;;;;;;3.55;81.83;100913.28;5048107;28;20041;-42
2022/01/08 08:07:00;;;;;;;13.85;2.13;;;;;;;3.55;82.04;100906.13;5048919;28;20021;-43
2022/01/08 08:09:26;;;;;;;9.60;1.98;;;;;;;3.51;81.64;100907.38;5050256;28;20035;-41
2022/01/08 08:11:51;;;;;;;14.73;2.30;;;;;;;3.52;81.75;100901.06;5049858;28;20479;-42
2022/01/08 08:14:16;;;;;;;9.85;2.25;;;;;;;3.50;82.11;100895.03;5049682;28;20063;-42
2022/01/08 08:16:42;;;;;;;16.20;2.15;;;;;;;3.54;81.75;100895.63;5037082;28;20048;-41
2022/01/08 08:19:07;;;;;;;14.15;2.72;;;;;;;3.54;82.21;100896.47;5029688;28;20025;-42
2022/01/08 08:21:32;;;;;;;7.72;1.80;;;;;;;3.56;82.08;100891.84;5029233;28;20045;-41
2022/01/08 08:23:59;;;;;;;13.55;2.00;;;;;;;3.55;82.43;100887.50;5029866;28;20048;-41
2022/01/08 08:26:24;;;;;;;12.70;2.38;;;;;;;3.51;82.66;100888.75;5046829;28;20122;-43
2022/01/08 08:28:49;;;;;;;13.63;2.30;;;;;;;3.52;83.32;100891.28;5048295;28;20083;-41
2022/01/08 08:31:15;;;;;;;10.63;1.90;;;;;;;3.46;83.39;100889.16;5049372;28;20159;-40
2022/01/08 08:33:40;;;;;;;17.10;2.17;;;;;;;3.41;84.13;100877.25;5051865;28;20472;-42
2022/01/08 08:36:06;;;;;;;14.93;2.17;;;;;;;3.39;84.24;100868.53;5050123;28;20073;-42
2022/01/08 08:38:31;;;;;;;10.15;2.30;;;;;;;3.36;84.74;100876.78;5048980;28;20048;-41
2022/01/08 08:40:57;;;;;;;7.32;2.50;;;;;;;3.37;85.16;100862.50;5049312;28;20144;-43
2022/01/08 08:43:23;;;;;;;16.77;2.97;;;;;;;3.37;85.27;100868.69;5051852;28;20104;-42
2022/01/08 08:45:49;;;;;;;14.82;3.55;;;;;;;3.31;85.71;100869.22;5051156;28;20039;-42
2022/01/08 08:48:16;;;;;;;20.27;3.20;;;;;;;3.36;85.28;100874.13;5052418;28;20029;-42
2022/01/08 08:50:42;;;;;;;16.90;3.63;;;;;;;3.34;86.26;100865.44;5050850;28;20025;-42
2022/01/08 08:53:08;;;;;;;20.45;4.35;;;;;;;3.32;86.61;100862.06;5040317;28;20497;-42
2022/01/08 08:55:33;;;;;;;18.17;4.97;;;;;;;3.26;87.16;100858.97;5052215;28;20108;-43
2022/01/08 08:58:00;;;;;;;20.65;5.28;;;;;;;3.27;86.98;100862.50;5042989;28;20030;-42
2022/01/08 09:00:26;;;;;;;23.80;5.60;;;;;;;3.24;87.68;100862.78;5042309;28;20028;-42
2022/01/08 09:02:51;;;;;;;16.05;6.18;;;;;;;3.20;87.85;100851.53;5051701;28;20392;-42
2022/01/08 09:05:17;;;;;;;17.08;6.72;;;;;;;3.19;88.00;100844.53;5041111;28;20053;-42
2022/01/08 09:07:42;;;;;;;23.77;8.43;;;;;;;3.21;87.96;100831.97;5051640;28;20033;-42
2022/01/08 09:10:33;;;;;;;18.58;8.23;;;;;;;3.23;87.88;100824.66;5067771;28;20402;-42
2022/01/08 09:12:58;;;;;;;23.35;8.50;;;;;;;3.21;87.78;100816.00;5067887;28;20032;-43
2022/01/08 09:15:25;;;;;;;19.15;8.07;;;;;;;3.15;87.98;100815.69;5069232;28;20123;-42
2022/01/08 09:17:53;;;;;;;21.67;8.70;;;;;;;3.16;87.80;100815.56;5067363;28;20043;-42
2022/01/08 09:20:18;;;;;;;19.20;8.45;;;;;;;3.17;88.13;100809.25;5050593;28;20030;-43
2022/01/08 09:22:44;;;;;;;20.95;8.60;;;;;;;3.19;87.53;100791.34;5056082;28;20029;-41
2022/01/08 09:25:10;;;;;;;18.20;8.10;;;;;;;3.20;87.62;100790.38;5064257;28;20047;-41
2022/01/08 09:27:36;;;;;;;19.55;8.50;;;;;;;3.25;87.51;100796.13;5050482;28;20075;-41
2022/01/08 09:30:02;;;;;;;21.50;8.05;;;;;;;3.22;87.39;100793.75;5051020;28;20032;-41
2022/01/08 09:32:29;;;;;;;17.75;8.23;;;;;;;3.22;87.94;100785.75;5048223;28;20033;-41
2022/01/08 09:34:54;;;;;;;31.08;9.00;;;;;;;3.20;88.13;100787.72;5045504;28;20033;-40
2022/01/08 09:37:20;;;;;;;24.02;9.27;;;;;;;3.21;87.12;100781.44;5050524;28;20111;-40
2022/01/08 09:39:45;;;;;;;20.60;8.55;;;;;;;3.29;87.55;100783.38;5045991;28;20029;-42
2022/01/08 09:42:10;;;;;;;15.00;8.18;;;;;;;3.29;87.04;100781.59;5046081;28;20123;-41
2022/01/08 09:44:37;;;;;;;25.33;8.35;;;;;;;3.30;86.55;100769.13;5045892;28;20148;-42
2022/01/08 09:47:04;;;;;;;20.17;7.55;;;;;;;3.34;86.43;100761.69;5045688;28;20033;-43
2022/01/08 09:49:30;;;;;;;16.95;7.13;;;;;;;3.37;86.13;100756.09;5046498;28;20074;-41
2022/01/08 09:51:55;;;;;;;16.08;6.88;;;;;;;3.42;86.16;100753.88;5044649;28;20026;-41
2022/01/08 09:54:20;;;;;;;14.57;7.75;;;;;;;3.46;86.46;100750.81;5047530;28;20405;-42
2022/01/08 09:56:46;;;;;;;17.33;7.50;;;;;;;3.46;86.57;100728.69;5045702;28;20374;-41
2022/01/08 09:59:11;;;;;;;11.85;6.82;;;;;;;3.44;85.83;100720.81;5045795;28;20033;-42
2022/01/08 10:01:37;;;;;;;18.75;6.72;;;;;;;3.44;85.56;100731.47;5046694;28;20097;-41
2022/01/08 10:04:04;;;;;;;18.25;7.20;;;;;;;3.47;86.48;100715.22;5045832;28;20029;-41
2022/01/08 10:06:35;;;;;;;18.65;6.75;;;;;;;3.54;84.80;100720.00;5027697;28;20108;-41
2022/01/08 10:09:01;;;;;;;12.95;6.07;;;;;;;3.50;84.86;100700.81;5047673;28;20041;-42
2022/01/08 10:11:28;;;;;;;11.90;6.10;;;;;;;3.53;84.68;100703.22;5054178;28;20029;-42
2022/01/08 10:14:07;;;;;;;17.70;6.25;;;;;;;3.54;85.17;100688.91;5049213;28;20104;-41
2022/01/08 10:19:30;;;;;;;11.05;4.72;;;;;;;3.61;84.42;100674.06;5066223;28;20059;-41
2022/01/08 10:21:56;;;;;;;7.35;4.65;;;;;;;3.64;83.69;100656.97;5055253;28;20053;-42
2022/01/08 10:24:27;;;;;;;11.35;4.65;;;;;;;3.73;83.01;100662.28;5037211;28;20029;-42
2022/01/08 10:27:00;;;;;;;11.60;4.28;;;;;;;3.81;82.10;100642.94;5035261;28;20079;-42
2022/01/08 10:29:26;;;;;;;10.25;3.42;;;;;;;3.87;80.07;100642.38;5034063;28;20045;-42
2022/01/08 10:31:53;;;;;;;8.02;3.40;;;;;;;3.91;79.63;100643.75;5033276;28;20516;-41
2022/01/08 10:34:27;;;;;;;12.32;3.40;;;;;;;4.04;79.51;100629.31;5017716;28;20049;-42
2022/01/08 10:36:55;;;;;;;7.40;2.90;;;;;;;4.09;78.97;100622.56;5035922;28;20512;-42
2022/01/08 10:39:28;;;;;;;9.40;3.20;;;;;;;4.24;79.12;100606.09;5037372;28;20044;-42
2022/01/08 10:41:55;;;;;;;14.95;3.92;;;;;;;4.31;78.59;100601.84;5037111;28;20370;-42
2022/01/08 10:44:21;;;;;;;7.97;3.17;;;;;;;4.37;78.48;100591.47;5035564;28;20037;-43
2022/01/08 10:47:02;;;;;;;9.85;3.28;;;;;;;4.40;77.76;100587.66;5034827;28;20033;-42
2022/01/08 10:49:38;;;;;;;9.88;2.50;;;;;;;4.52;76.78;100586.44;5033427;28;20440;-42
2022/01/08 10:52:08;;;;;;;10.85;2.80;;;;;;;4.61;76.83;100577.56;5034933;28;20025;-41
2022/01/08 10:54:35;;;;;;;6.65;2.72;;;;;;;4.66;76.45;100554.94;5034844;28;20477;-42
2022/01/08 10:57:03;;;;;;;13.15;2.75;;;;;;;4.72;76.15;100549.03;5033324;28;20034;-41
2022/01/08 10:59:29;;;;;;;9.68;2.42;;;;;;;4.69;76.67;100541.34;5034770;28;20029;-42
2022/01/08 11:01:57;;;;;;;16.33;3.20;;;;;;;4.55;76.85;100534.69;5035152;28;20107;-42
2022/01/08 11:04:50;;;;;;;12.25;2.75;;;;;;;4.69;77.02;100523.50;5035272;28;20390;-42
2022/01/08 11:07:17;;;;;;;10.20;2.95;;;;;;;4.60;77.50;100522.56;5039545;28;20074;-42
2022/01/08 11:09:44;;;;;;;7.43;2.78;;;;;;;4.64;77.35;100511.63;5039178;28;20049;-41
2022/01/08 11:12:16;;;;;;;7.13;2.40;;;;;;;4.61;77.19;100510.94;5013916;28;20033;-41
2022/01/08 11:17:28;;;;;;;10.13;2.78;;;;;;;4.48;78.35;100491.81;5034073;28;20056;-42
2022/01/08 11:19:55;;;;;;;10.05;3.17;;;;;;;4.40;79.45;100489.06;5041382;28;20033;-41
2022/01/08 11:22:26;;;;;;;11.77;2.60;;;;;;;4.37;80.20;100500.00;5053748;28;20118;-42
2022/01/08 11:25:10;;;;;;;16.70;2.88;;;;;;;4.37;80.14;100484.03;5048344;28;20029;-42
2022/01/08 11:27:46;;;;;;;12.85;3.22;;;;;;;4.46;80.11;100466.31;5014509;28;20026;-42
2022/01/08 11:30:25;;;;;;;11.80;3.28;;;;;;;4.51;80.12;100464.88;5017719;28;20406;-41
2022/01/08 11:32:54;;;;;;;12.02;3.75;;;;;;;4.28;80.98;100458.28;5022690;28;20531;-42
2022/01/08 11:35:22;;;;;;;14.68;3.95;;;;;;;4.20;80.66;100444.91;5041296;28;20021;-41
2022/01/08 11:37:49;;;;;;;12.15;3.63;;;;;;;4.11;81.93;100434.16;5033829;28;20469;-41
2022/01/08 11:40:17;;;;;;;16.83;3.67;;;;;;;4.12;82.22;100416.34;5033221;28;20178;-41
2022/01/08 11:42:43;;;;;;;10.32;3.80;;;;;;;4.17;82.29;100404.25;5033722;28;20033;-41
2022/01/08 11:45:12;;;;;;;11.68;3.65;;;;;;;4.21;82.46;100398.63;5032269;28;20025;-41
2022/01/08 11:47:41;;;;;;;11.60;3.55;;;;;;;4.27;83.37;100400.69;5032105;28;20108;-41
2022/01/08 11:50:07;;;;;;;9.65;3.50;;;;;;;4.09;83.57;100372.22;5031497;28;20021;-41